Time;durP1;ratioP1;P1;durP2;ratioP2;P2;SDS_P1;SDS_P2;PMS_P1;PMS_P2;Temp;Humidity;BMP_temperature;BMP_pressure;BME280_temperature;BME280_humidity;BME280_pressure;Samples;Min_cycle;Max_cycle;Signal;HPM_P1;HPM_P2
2021/04/25 00:02:02;;;;;;;8.25;4.70;;;;;;;6.59;66.11;102727.03;10434998;28;20045;-78
2021/04/25 00:12:51;;;;;;;8.52;4.75;;;;;;;6.74;66.57;102756.41;10442692;28;20048;-79
2021/04/25 00:19:03;;;;;;;;;;;;;;;;;;;;;
2021/04/25 00:25:02;;;;;;;11.97;5.20;;;;;;;6.57;67.46;102751.50;10444611;28;20497;-78
2021/04/25 00:31:07;;;;;;;10.52;5.20;;;;;;;6.52;67.87;102742.69;10412205;28;20377;-79
2021/04/25 00:36:51;;;;;;;11.80;4.80;;;;;;;5.91;68.37;102658.91;10453255;28;20037;-79
2021/04/25 00:42:15;;;;;;;11.65;4.85;;;;;;;6.41;68.93;102765.38;10435025;28;20055;-78
2021/04/25 00:47:36;;;;;;;12.90;5.70;;;;;;;6.34;69.65;102747.69;10445914;28;20140;-79
2021/04/25 00:52:46;;;;;;;13.10;6.03;;;;;;;5.77;69.87;102668.69;10453069;28;20048;-80
2021/04/25 00:57:56;;;;;;;12.38;5.88;;;;;;;6.24;70.24;102742.41;10455100;28;20538;-80
2021/04/25 01:03:10;;;;;;;12.55;5.70;;;;;;;5.80;71.18;102694.97;10413631;28;20079;-80
2021/04/25 01:08:11;;;;;;;12.50;6.30;;;;;;;6.07;71.30;102736.66;10447655;28;20412;-79
2021/04/25 01:13:12;;;;;;;11.05;5.63;;;;;;;6.05;71.95;102733.47;10500865;28;20039;-79
2021/04/25 01:18:21;;;;;;;10.55;5.60;;;;;;;5.72;73.06;102687.53;10437348;28;20055;-81
2021/04/25 01:23:24;;;;;;;12.15;5.60;;;;;;;5.73;73.07;102697.16;10460365;28;20458;-79
2021/04/25 01:28:27;;;;;;;13.70;6.30;;;;;;;5.74;73.04;102701.47;10437360;28;20037;-81
2021/04/25 01:33:33;;;;;;;15.30;6.63;;;;;;;5.71;73.49;102715.44;10438183;28;20274;-81
2021/04/25 01:38:36;;;;;;;17.42;7.03;;;;;;;5.64;73.76;102717.63;10449850;28;20051;-81
2021/04/25 01:43:48;;;;;;;14.32;6.38;;;;;;;5.30;74.21;102678.16;10463733;28;20254;-79
2021/04/25 01:48:50;;;;;;;14.00;6.30;;;;;;;5.65;74.57;102729.97;10455475;28;20071;-79
2021/04/25 01:53:50;;;;;;;11.80;5.80;;;;;;;5.49;74.78;102716.66;10457722;28;20596;-79
2021/04/25 01:58:51;;;;;;;11.88;5.95;;;;;;;5.28;75.08;102683.00;10426740;28;20040;-78
2021/04/25 02:03:53;;;;;;;15.13;6.35;;;;;;;5.57;75.70;102727.88;10475944;28;20087;-80
2021/04/25 02:08:55;;;;;;;15.35;6.10;;;;;;;5.37;75.21;102697.44;10432852;28;20041;-78
2021/04/25 02:13:55;;;;;;;11.90;6.50;;;;;;;5.66;75.69;102727.00;10452744;28;20037;-78
2021/04/25 02:18:58;;;;;;;13.43;6.35;;;;;;;5.67;75.04;102727.81;10460254;28;20036;-78
2021/04/25 02:23:59;;;;;;;11.85;5.85;;;;;;;5.73;74.76;102732.84;10452523;28;20036;-78
2021/04/25 02:29:00;;;;;;;14.57;5.90;;;;;;;5.78;75.00;102740.06;10450329;28;20037;-77
2021/04/25 02:34:07;;;;;;;13.60;6.00;;;;;;;5.74;74.68;102722.94;10458442;28;20040;-80
2021/04/25 02:39:15;;;;;;;11.50;6.15;;;;;;;5.52;74.67;102688.47;10467181;28;20064;-79
2021/04/25 02:44:45;;;;;;;12.85;6.95;;;;;;;4.97;74.32;102581.31;10451403;28;20589;-81
2021/04/25 02:49:48;;;;;;;10.18;6.10;;;;;;;4.81;74.67;102539.63;10453638;28;20377;-81
2021/04/25 02:55:35;;;;;;;;;;;;;;;;;;;;;
2021/04/25 03:01:05;;;;;;;17.10;6.38;;;;;;;4.99;73.71;102525.56;10426612;28;20041;-80
2021/04/25 03:06:06;;;;;;;15.32;7.25;;;;;;;5.76;73.87;102645.63;10459550;28;20045;-80
2021/04/25 03:11:18;;;;;;;;;;;;;;;;;;;;;
2021/04/25 03:16:35;;;;;;;;;;;;;;;;;;;;;
2021/04/25 03:21:56;;;;;;;14.93;7.70;;;;;;;6.08;74.30;102689.94;10436607;28;20671;-81
2021/04/25 03:27:01;;;;;;;12.27;6.90;;;;;;;5.31;74.42;102540.31;10414284;28;20080;-80
2021/04/25 03:32:28;;;;;;;17.20;7.28;;;;;;;5.76;74.07;102624.16;10446684;28;20057;-82
2021/04/25 03:38:12;;;;;;;12.98;7.10;;;;;;;6.51;74.98;102736.53;10415569;28;22016;-80
2021/04/25 03:43:54;;;;;;;12.55;6.90;;;;;;;5.68;74.76;102589.88;10457094;28;20106;-80
2021/04/25 03:49:23;;;;;;;17.25;5.85;;;;;;;5.93;74.37;102608.44;10439658;28;20082;-79
2021/04/25 03:54:36;;;;;;;;;;;;;;;;;;;;;
2021/04/25 03:59:49;;;;;;;12.23;6.65;;;;;;;6.68;75.13;102725.31;10431886;28;20067;-80
2021/04/25 04:05:37;;;;;;;17.52;7.25;;;;;;;5.51;74.90;102547.41;10383487;28;20051;-80
2021/04/25 04:10:57;;;;;;;12.68;6.72;;;;;;;5.96;75.45;102595.56;10413271;28;20140;-80
2021/04/25 04:16:33;;;;;;;14.38;6.85;;;;;;;6.72;76.01;102723.63;10437080;28;20485;-79
2021/04/25 04:22:32;;;;;;;16.77;6.28;;;;;;;6.71;75.70;102714.00;10281727;28;20038;-79
2021/04/25 04:28:15;;;;;;;12.40;7.00;;;;;;;6.72;75.91;102710.19;10238245;28;20230;-79
2021/04/25 04:33:54;;;;;;;;;;;;;;;;;;;;;
2021/04/25 04:39:17;;;;;;;16.33;7.03;;;;;;;6.51;76.01;102687.34;10412349;28;20049;-79
2021/04/25 04:45:03;;;;;;;15.40;7.15;;;;;;;5.85;75.99;102611.72;10414213;28;20049;-78
2021/04/25 04:50:26;;;;;;;13.10;6.78;;;;;;;5.43;77.07;102572.94;10383019;28;20505;-78
2021/04/25 04:56:02;;;;;;;16.83;7.75;;;;;;;6.36;77.86;102717.88;10385195;28;20379;-80
2021/04/25 05:01:39;;;;;;;15.73;8.13;;;;;;;5.62;78.28;102607.09;10392706;28;20061;-80
2021/04/25 05:07:15;;;;;;;;;;;;;;;;;;;;;
2021/04/25 05:12:49;;;;;;;;;;;;;;;;;;;;;
2021/04/25 05:19:21;;;;;;;;;;;;;;;;;;;;;
2021/04/25 05:24:50;;;;;;;13.20;7.20;;;;;;;6.03;76.24;102633.59;10423947;28;20041;-79
2021/04/25 05:29:53;;;;;;;16.40;7.95;;;;;;;6.74;75.11;102734.91;10402439;28;20378;-80
2021/04/25 05:34:54;;;;;;;14.80;7.13;;;;;;;6.76;74.71;102727.34;10393258;28;20184;-80
2021/04/25 05:39:57;;;;;;;12.35;6.30;;;;;;;6.59;75.02;102694.78;10412082;28;20037;-79
2021/04/25 05:45:00;;;;;;;12.38;6.95;;;;;;;6.51;74.16;102687.34;10390125;28;20455;-79
2021/04/25 05:50:00;;;;;;;16.45;6.88;;;;;;;6.91;74.12;102749.78;10396609;28;20128;-78
2021/04/25 05:55:17;;;;;;;11.88;6.30;;;;;;;7.11;73.68;102760.28;10410643;28;20041;-80
2021/04/25 06:00:38;;;;;;;;;;;;;;;;;;;;;
2021/04/25 06:05:39;;;;;;;12.25;6.57;;;;;;;7.32;73.19;102781.56;10460439;28;20035;-80
2021/04/25 06:11:18;;;;;;;10.77;6.13;;;;;;;7.34;72.77;102757.84;10400221;28;20049;-79
2021/04/25 06:17:15;;;;;;;14.85;7.13;;;;;;;6.63;72.14;102668.94;10424391;28;20186;-80
2021/04/25 06:22:59;;;;;;;12.45;5.68;;;;;;;7.48;71.61;102769.50;10467574;28;20497;-78
2021/04/25 06:28:15;;;;;;;13.60;5.70;;;;;;;7.09;70.77;102684.47;10479497;28;20115;-79
2021/04/25 06:33:48;;;;;;;13.73;5.88;;;;;;;7.22;69.97;102711.72;10422264;28;20388;-79
2021/04/25 06:39:24;;;;;;;12.68;6.28;;;;;;;6.45;69.75;102581.03;10444528;28;20029;-81
2021/04/25 06:45:01;;;;;;;;;;;;;;;;;;;;;
2021/04/25 06:50:05;;;;;;;10.73;4.97;;;;;;;7.12;68.71;102697.31;10374787;28;20052;-81
2021/04/25 06:55:16;;;;;;;13.48;5.57;;;;;;;7.60;68.76;102777.94;10439950;28;20060;-81
2021/04/25 07:00:22;;;;;;;17.77;5.50;;;;;;;7.62;68.59;102765.00;10441365;28;20206;-82
2021/04/25 07:05:24;;;;;;;8.38;4.80;;;;;;;7.81;68.38;102777.63;10411814;28;20428;-82
2021/04/25 07:10:35;;;;;;;11.82;5.70;;;;;;;6.91;68.18;102620.72;10406144;28;20049;-81
2021/04/25 07:16:32;;;;;;;;;;;;;;;;;;;;;
2021/04/25 07:22:10;;;;;;;9.13;3.50;;;;;;;8.26;63.69;102756.44;10418454;28;20051;-81
2021/04/25 07:27:56;;;;;;;13.75;2.80;;;;;;;8.51;59.77;102754.41;10409796;28;20446;-82
2021/04/25 07:33:17;;;;;;;8.40;2.15;;;;;;;7.85;60.22;102670.94;10403215;28;20166;-83
2021/04/25 07:39:07;;;;;;;;;;;;;;;;;;;;;
2021/04/25 07:45:05;;;;;;;;;;;;;;;;;;;;;
2021/04/25 07:50:14;;;;;;;10.95;3.13;;;;;;;8.23;60.06;102705.81;10400719;28;20060;-82
2021/04/25 07:55:39;;;;;;;9.52;2.85;;;;;;;8.32;59.60;102690.56;10396796;28;20144;-80
2021/04/25 08:01:00;;;;;;;8.10;2.50;;;;;;;8.61;57.87;102721.88;10383259;28;20049;-80
2021/04/25 08:06:41;;;;;;;;;;;;;;;;;;;;;
2021/04/25 08:12:23;;;;;;;;;;;;;;;;;;;;;
2021/04/25 08:18:03;;;;;;;;;;;;;;;;;;;;;
2021/04/25 08:23:44;;;;;;;;;;;;;;;;;;;;;
2021/04/25 08:29:32;;;;;;;12.75;2.20;;;;;;;9.42;53.79;102737.44;10440398;28;20121;-81
2021/04/25 08:35:43;;;;;;;;;;;;;;;;;;;;;
2021/04/25 08:41:35;;;;;;;;;;;;;;;;;;;;;
2021/04/25 08:47:11;;;;;;;;;;;;;;;;;;;;;
2021/04/25 08:52:32;;;;;;;;;;;;;;;;;;;;;
2021/04/25 08:58:31;;;;;;;6.32;2.50;;;;;;;9.09;52.46;102621.59;10454266;28;20421;-81
2021/04/25 09:03:33;;;;;;;5.65;2.33;;;;;;;10.67;50.96;102791.69;10458346;28;20041;-80
2021/04/25 09:09:33;;;;;;;;;;;;;;;;;;;;;
2021/04/25 09:15:10;;;;;;;11.50;2.83;;;;;;;9.78;51.16;102701.50;10456219;28;20064;-80
2021/04/25 09:20:17;;;;;;;5.88;2.50;;;;;;;9.92;50.44;102676.03;10432480;28;20031;-81
2021/04/25 09:26:27;;;;;;;9.88;2.53;;;;;;;10.03;49.92;102654.94;10432195;28;20056;-79
2021/04/25 09:31:35;;;;;;;;;;;;;;;;;;;;;
2021/04/25 09:37:40;;;;;;;;;;;;;;;;;;;;;
2021/04/25 09:43:04;;;;;;;14.95;2.38;;;;;;;12.26;45.77;102795.88;10456153;28;20385;-81
2021/04/25 09:48:26;;;;;;;6.45;1.90;;;;;;;12.61;44.16;102796.56;10449488;28;20040;-81
2021/04/25 09:53:52;;;;;;;8.25;1.83;;;;;;;12.46;45.47;102778.91;10434970;28;20513;-83
2021/04/25 09:59:01;;;;;;;7.60;1.80;;;;;;;12.98;42.35;102734.44;10454514;28;20040;-80
2021/04/25 10:04:57;;;;;;;;;;;;;;;;;;;;;
2021/04/25 10:10:22;;;;;;;4.72;1.42;;;;;;;14.53;39.46;102664.44;10407428;28;20037;-81
2021/04/25 10:15:23;;;;;;;6.13;1.98;;;;;;;15.85;36.35;102623.84;10449675;28;20052;-77
2021/04/25 10:20:38;;;;;;;5.55;1.75;;;;;;;17.41;34.98;102756.06;10457189;28;20125;-78
2021/04/25 10:25:39;;;;;;;7.53;2.58;;;;;;;18.10;33.08;102753.47;10487389;28;20104;-77
2021/04/25 10:30:41;;;;;;;7.05;1.98;;;;;;;18.76;32.77;102739.66;10471978;28;20032;-77
2021/04/25 10:35:55;;;;;;;12.33;1.90;;;;;;;19.16;30.72;102710.88;10452332;28;20047;-83
2021/04/25 10:41:17;;;;;;;5.32;1.45;;;;;;;18.88;30.91;102753.16;10437048;28;20021;-77
2021/04/25 10:46:17;;;;;;;6.15;1.73;;;;;;;17.49;32.81;102710.53;10461359;28;20482;-77
2021/04/25 10:51:18;;;;;;;8.07;1.80;;;;;;;16.53;35.48;102756.44;10456562;28;20079;-82
2021/04/25 10:56:23;;;;;;;9.88;2.28;;;;;;;16.02;36.22;102683.47;10455985;28;20086;-84
2021/04/25 11:01:39;;;;;;;5.53;1.75;;;;;;;16.38;35.30;102708.91;10454080;28;20029;-85
2021/04/25 11:06:42;;;;;;;15.32;6.03;;;;;;;16.14;35.28;102654.53;10441876;28;20118;-80
2021/04/25 11:11:43;;;;;;;6.03;1.65;;;;;;;16.56;35.27;102705.81;10462802;28;20029;-79
2021/04/25 11:16:44;;;;;;;6.50;1.52;;;;;;;16.96;34.16;102691.13;10434451;28;20036;-77
2021/04/25 11:21:48;;;;;;;5.50;1.73;;;;;;;17.40;33.38;102715.41;10459748;28;20093;-77
2021/04/25 11:26:51;;;;;;;12.70;1.80;;;;;;;17.24;33.75;102702.63;10441782;28;20035;-78
2021/04/25 11:31:54;;;;;;;9.63;1.73;;;;;;;16.57;35.43;102729.22;10426601;28;20037;-77
2021/04/25 11:36:54;;;;;;;;;;;;;;;16.48;35.06;102722.03;10458440;28;20469;-77
2021/04/25 11:41:55;;;;;;;11.30;1.80;;;;;;;15.96;36.31;102673.97;10480100;28;19927;-79
2021/04/25 11:47:00;;;;;;;6.30;1.55;;;;;;;16.63;35.67;102673.22;10467781;28;20515;-78
2021/04/25 11:52:07;;;;;;;8.57;1.52;;;;;;;16.84;35.12;102706.47;10455778;28;20086;-76
2021/04/25 11:57:09;;;;;;;6.82;1.30;;;;;;;16.78;33.96;102707.88;10477536;28;20052;-76
2021/04/25 12:02:10;;;;;;;13.32;2.10;;;;;;;16.23;35.18;102687.88;10440737;28;20049;-74
2021/04/25 12:07:10;;;;;;;8.43;1.80;;;;;;;16.83;35.11;102710.34;10470657;28;20540;-75
2021/04/25 12:12:11;;;;;;;7.60;1.83;;;;;;;17.00;35.03;102713.81;10471538;28;20040;-78
2021/04/25 12:17:13;;;;;;;5.03;1.77;;;;;;;16.76;34.94;102718.34;10461995;28;20111;-78
2021/04/25 12:22:14;;;;;;;5.80;1.37;;;;;;;16.75;35.40;102714.03;10473722;28;20378;-78
2021/04/25 12:27:14;;;;;;;5.45;1.60;;;;;;;17.22;34.62;102721.34;10450106;28;20501;-82
2021/04/25 12:32:22;;;;;;;7.72;1.70;;;;;;;16.38;34.98;102727.22;10474178;28;20036;-79
2021/04/25 12:37:36;;;;;;;6.78;1.70;;;;;;;15.59;37.25;102704.16;10449798;28;20032;-80
2021/04/25 12:42:37;;;;;;;7.07;1.80;;;;;;;15.82;36.44;102717.22;10440944;28;20115;-80
2021/04/25 12:47:40;;;;;;;7.68;1.50;;;;;;;15.64;37.46;102663.00;10449435;28;20032;-80
2021/04/25 12:52:44;;;;;;;6.82;1.50;;;;;;;16.17;35.31;102689.28;10441078;28;20085;-81
2021/04/25 12:57:46;;;;;;;9.82;2.83;;;;;;;15.90;36.44;102686.28;10456030;28;20401;-78
2021/04/25 13:02:49;;;;;;;6.40;1.77;;;;;;;15.55;35.85;102582.53;10427957;28;20044;-79
2021/04/25 13:07:50;;;;;;;6.57;1.50;;;;;;;15.87;36.89;102703.34;10460424;28;20045;-80
2021/04/25 13:12:55;;;;;;;10.00;2.80;;;;;;;15.96;37.42;102695.78;10432432;28;20440;-80
2021/04/25 13:18:00;;;;;;;9.23;1.63;;;;;;;16.34;36.55;102688.91;10455883;28;20048;-82
2021/04/25 13:23:07;;;;;;;5.80;1.48;;;;;;;16.30;35.78;102638.13;10462193;28;20049;-82
2021/04/25 13:28:08;;;;;;;4.00;1.23;;;;;;;16.45;35.97;102648.22;10447257;28;20053;-85
2021/04/25 13:33:17;;;;;;;5.37;1.43;;;;;;;16.56;35.57;102651.22;10453993;28;20094;-81
2021/04/25 13:38:20;;;;;;;7.75;1.70;;;;;;;16.76;35.78;102674.66;10446049;28;20072;-82
2021/04/25 13:43:22;;;;;;;7.55;1.90;;;;;;;16.52;35.38;102655.78;10478864;28;20067;-86
2021/04/25 13:48:24;;;;;;;8.48;1.63;;;;;;;16.46;35.61;102671.63;10445311;28;20029;-81
2021/04/25 13:53:44;;;;;;;6.30;2.22;;;;;;;16.12;35.18;102657.59;10452183;28;20048;-83
2021/04/25 13:58:47;;;;;;;7.45;2.03;;;;;;;15.63;36.92;102650.50;10440983;28;20062;-82
2021/04/25 14:03:48;;;;;;;13.95;2.25;;;;;;;15.73;37.07;102632.06;10461587;28;20053;-78
2021/04/25 14:08:49;;;;;;;8.98;1.55;;;;;;;15.27;37.17;102593.50;10459437;28;20041;-79
2021/04/25 14:13:50;;;;;;;11.05;2.30;;;;;;;15.46;37.63;102590.88;10431791;28;20068;-78
2021/04/25 14:18:53;;;;;;;19.33;2.50;;;;;;;15.83;35.69;102598.84;10437759;28;20062;-79
2021/04/25 14:24:05;;;;;;;28.15;2.70;;;;;;;15.80;36.40;102615.91;10425746;28;20033;-81
2021/04/25 14:29:48;;;;;;;;;;;;;;;;;;;;;
2021/04/25 14:35:10;;;;;;;;;;;;;;;15.79;36.88;102617.06;10399554;28;20043;-83
2021/04/25 14:41:06;;;;;;;;;;;;;;;;;;;;;
2021/04/25 14:46:34;;;;;;;5.97;1.77;;;;;;;15.57;36.51;102548.34;10431155;28;20484;-80
2021/04/25 14:58:19;;;;;;;;;;;;;;;;;;;;;
2021/04/25 15:03:40;;;;;;;6.80;1.80;;;;;;;15.71;36.28;102555.28;10439822;28;20037;-75
2021/04/25 15:08:43;;;;;;;6.15;1.75;;;;;;;15.37;36.33;102500.31;10444405;28;20040;-76
2021/04/25 15:13:43;;;;;;;13.82;2.42;;;;;;;15.15;37.72;102548.81;10474187;28;20115;-76
2021/04/25 15:18:44;;;;;;;7.68;2.05;;;;;;;15.26;37.98;102510.16;10451088;28;20409;-78
2021/04/25 15:23:44;;;;;;;10.95;2.28;;;;;;;15.84;36.63;102545.88;10439549;28;20086;-78
2021/04/25 15:28:45;;;;;;;11.55;2.78;;;;;;;16.02;37.27;102574.38;10466792;28;20159;-79
2021/04/25 15:33:48;;;;;;;7.72;2.47;;;;;;;16.10;35.98;102536.34;10455400;28;20053;-77
2021/04/25 15:38:49;;;;;;;16.90;2.45;;;;;;;15.81;37.34;102552.06;10454354;28;20041;-77
2021/04/25 15:43:49;;;;;;;7.38;1.77;;;;;;;15.90;36.52;102498.13;10461853;28;20059;-81
2021/04/25 15:48:50;;;;;;;9.40;1.70;;;;;;;15.41;38.27;102495.75;10426463;28;20049;-79
2021/04/25 15:53:50;;;;;;;6.20;1.73;;;;;;;15.43;38.58;102545.25;10449985;28;20086;-80
2021/04/25 15:58:51;;;;;;;9.70;2.00;;;;;;;15.23;38.92;102512.44;10448065;28;20045;-84
2021/04/25 16:03:52;;;;;;;6.97;1.83;;;;;;;15.07;38.83;102525.25;10463096;28;20062;-86
2021/04/25 16:08:55;;;;;;;7.00;2.33;;;;;;;15.61;39.16;102532.06;10452597;28;20047;-82
2021/04/25 16:13:55;;;;;;;;;;;;;;;15.57;38.25;102515.63;10454548;28;20493;-80
2021/04/25 16:18:58;;;;;;;12.20;4.97;;;;;;;14.61;39.57;102415.94;10464130;28;19920;-80
2021/04/25 16:23:59;;;;;;;10.15;3.05;;;;;;;14.66;39.82;102472.81;10453319;28;20780;-80
2021/04/25 16:29:00;;;;;;;13.98;4.72;;;;;;;14.43;39.61;102485.34;10442147;28;20049;-81
2021/04/25 16:34:03;;;;;;;5.15;2.30;;;;;;;14.82;39.49;102529.25;10435229;28;20194;-79
2021/04/25 16:39:04;;;;;;;7.03;2.67;;;;;;;14.76;39.05;102521.31;10448929;28;20120;-81
2021/04/25 16:44:04;;;;;;;9.35;3.35;;;;;;;14.55;39.58;102531.59;10435461;28;20044;-80
2021/04/25 16:49:06;;;;;;;6.50;2.03;;;;;;;14.33;39.74;102503.75;10434277;28;20051;-85
2021/04/25 16:54:08;;;;;;;8.68;1.50;;;;;;;14.79;39.23;102520.63;10429849;28;20040;-87
2021/04/25 16:59:12;;;;;;;8.27;1.90;;;;;;;15.14;38.20;102509.09;10420636;28;20082;-89
2021/04/25 17:04:14;;;;;;;3.33;1.50;;;;;;;15.36;38.36;102528.72;10428013;28;20052;-83
2021/04/25 17:09:15;;;;;;;6.00;1.65;;;;;;;14.57;39.29;102534.78;10393577;28;20069;-83
2021/04/25 17:14:15;;;;;;;8.07;1.40;;;;;;;14.95;37.62;102517.16;10387528;28;20108;-83
2021/04/25 17:19:16;;;;;;;5.95;1.40;;;;;;;14.21;39.35;102506.50;10408536;28;20033;-84
2021/04/25 17:24:17;;;;;;;10.13;1.80;;;;;;;14.02;40.81;102525.34;10400834;28;20029;-82
2021/04/25 17:29:17;;;;;;;4.95;1.60;;;;;;;12.98;42.64;102490.13;10399488;28;20163;-83
2021/04/25 17:34:18;;;;;;;4.38;1.38;;;;;;;12.83;43.29;102498.88;10404316;28;20447;-82
2021/04/25 17:39:19;;;;;;;6.05;1.75;;;;;;;13.03;43.09;102514.34;10408203;28;20431;-81
2021/04/25 17:44:19;;;;;;;6.85;1.70;;;;;;;12.92;43.00;102513.16;10405326;28;20057;-82
2021/04/25 17:49:20;;;;;;;4.15;1.27;;;;;;;12.47;43.38;102459.63;10402633;28;20169;-82
2021/04/25 17:54:20;;;;;;;5.88;1.80;;;;;;;12.03;44.38;102451.03;10401321;28;20043;-82
2021/04/25 17:59:21;;;;;;;8.15;1.45;;;;;;;11.96;45.59;102494.13;10399798;28;20033;-84
2021/04/25 18:04:21;;;;;;;10.80;2.58;;;;;;;11.76;46.42;102472.06;10410232;28;20567;-83
2021/04/25 18:09:22;;;;;;;6.18;1.30;;;;;;;11.26;45.15;102375.28;10398377;28;20041;-82
2021/04/25 18:14:23;;;;;;;9.35;1.52;;;;;;;11.45;46.03;102447.97;10392557;28;20455;-82
2021/04/25 18:19:26;;;;;;;5.28;1.30;;;;;;;11.49;46.88;102492.25;10397125;28;20381;-84
2021/04/25 18:24:29;;;;;;;5.78;1.33;;;;;;;11.50;47.22;102482.19;10403409;28;20459;-83
2021/04/25 18:29:30;;;;;;;6.03;1.40;;;;;;;10.84;47.13;102429.25;10409025;28;20099;-83
2021/04/25 18:34:30;;;;;;;6.25;1.50;;;;;;;10.81;47.51;102448.81;10381835;28;20033;-81
2021/04/25 18:39:33;;;;;;;13.63;1.73;;;;;;;10.70;48.68;102477.31;10396784;28;20045;-80
2021/04/25 18:44:34;;;;;;;8.48;1.45;;;;;;;10.26;49.28;102441.34;10412187;28;20030;-81
2021/04/25 18:49:35;;;;;;;4.57;1.27;;;;;;;10.36;49.77;102462.69;10419948;28;20108;-80
2021/04/25 18:54:36;;;;;;;10.00;1.88;;;;;;;9.71;49.98;102408.41;10416225;28;20128;-78
2021/04/25 18:59:36;;;;;;;8.32;1.50;;;;;;;9.88;50.50;102425.75;10358674;28;20045;-78
2021/04/25 19:04:37;;;;;;;9.50;1.38;;;;;;;9.95;50.67;102469.28;10391551;28;20041;-82
2021/04/25 19:09:38;;;;;;;7.32;1.75;;;;;;;9.88;50.58;102468.97;10417190;28;20041;-81
2021/04/25 19:14:43;;;;;;;7.85;1.50;;;;;;;9.82;50.53;102459.41;10418066;28;20474;-85
2021/04/25 19:19:44;;;;;;;6.90;1.42;;;;;;;9.57;51.71;102459.03;10415285;28;20516;-75
2021/04/25 19:24:44;;;;;;;3.55;1.42;;;;;;;9.55;51.33;102455.84;10419045;28;20084;-76
2021/04/25 19:29:45;;;;;;;6.82;1.60;;;;;;;9.15;52.70;102434.25;10399103;28;20068;-76
2021/04/25 19:34:46;;;;;;;4.85;1.58;;;;;;;8.79;52.85;102386.59;10417182;28;20527;-74
2021/04/25 19:39:46;;;;;;;6.22;1.33;;;;;;;8.79;53.41;102405.47;10418946;28;20580;-75
2021/04/25 19:44:47;;;;;;;8.60;1.75;;;;;;;9.06;54.60;102471.16;10417289;28;20478;-76
2021/04/25 19:49:47;;;;;;;6.75;1.95;;;;;;;8.25;55.01;102350.69;10421779;28;20036;-76
2021/04/25 19:54:54;;;;;;;8.85;1.48;;;;;;;8.93;56.16;102472.03;10344619;28;20641;-79
2021/04/25 20:00:00;;;;;;;4.07;1.50;;;;;;;8.71;56.98;102470.13;10337637;28;20149;-79
2021/04/25 20:05:08;;;;;;;8.70;1.60;;;;;;;8.74;57.15;102497.28;10361864;28;20140;-80
2021/04/25 20:10:15;;;;;;;6.85;1.48;;;;;;;8.65;57.67;102493.72;10356397;28;20168;-81
2021/04/25 20:15:19;;;;;;;7.45;1.77;;;;;;;8.71;57.75;102503.28;10363456;28;20156;-79
2021/04/25 20:20:23;;;;;;;13.18;1.83;;;;;;;8.51;58.52;102503.75;10324796;28;21415;-82
2021/04/25 20:25:26;;;;;;;10.85;3.10;;;;;;;8.49;58.67;102500.53;10373368;28;20064;-80
2021/04/25 20:30:37;;;;;;;8.80;1.60;;;;;;;8.33;59.25;102487.41;10338830;28;20049;-82
2021/04/25 20:35:39;;;;;;;11.95;2.22;;;;;;;8.18;59.41;102463.47;10337937;28;20505;-82
2021/04/25 20:40:42;;;;;;;10.65;1.95;;;;;;;8.26;60.21;102497.78;10333980;28;20132;-79
2021/04/25 20:45:49;;;;;;;10.50;1.80;;;;;;;8.07;61.25;102483.63;10374248;28;20045;-78
2021/04/25 20:50:52;;;;;;;12.77;1.60;;;;;;;7.85;62.03;102458.22;10387451;28;21431;-80
2021/04/25 20:55:53;;;;;;;;;;;;;;;7.97;62.06;102485.47;10390184;28;20666;-79
2021/04/25 21:00:54;;;;;;;14.90;3.38;;;;;;;7.79;62.44;102467.53;10378962;28;19961;-80
2021/04/25 21:05:57;;;;;;;9.85;1.85;;;;;;;7.65;63.02;102461.34;10396215;28;20043;-80
2021/04/25 21:10:58;;;;;;;10.85;1.70;;;;;;;7.26;63.71;102414.19;10367948;28;20053;-77
2021/04/25 21:15:59;;;;;;;9.27;2.58;;;;;;;7.77;63.60;102502.03;10327418;28;20045;-82
2021/04/25 21:26:36;;;;;;;13.23;2.00;;;;;;;7.58;64.09;102489.44;10296237;28;20512;-80
2021/04/25 21:31:40;;;;;;;6.55;1.90;;;;;;;7.40;64.76;102469.59;10319460;28;20041;-80
2021/04/25 21:36:43;;;;;;;9.57;1.75;;;;;;;7.43;65.08;102508.53;10337722;28;20038;-80
2021/04/25 21:42:10;;;;;;;8.52;2.03;;;;;;;7.31;65.21;102484.03;10327296;28;20038;-79
2021/04/25 21:47:35;;;;;;;11.50;1.92;;;;;;;7.41;65.30;102505.38;10257679;28;20052;-79
2021/04/25 21:52:59;;;;;;;6.03;1.20;;;;;;;7.22;65.74;102475.03;10332318;28;20172;-82
2021/04/25 21:57:59;;;;;;;13.80;3.05;;;;;;;6.25;66.26;102341.16;10332481;28;20497;-80
2021/04/25 22:03:07;;;;;;;8.77;1.63;;;;;;;7.13;66.76;102486.50;10372124;28;20037;-80
2021/04/25 22:08:09;;;;;;;7.57;1.73;;;;;;;7.24;66.03;102503.22;10389506;28;20091;-80
2021/04/25 22:13:09;;;;;;;5.63;1.40;;;;;;;7.01;66.62;102470.03;10380244;28;20037;-79
2021/04/25 22:18:10;;;;;;;11.13;2.45;;;;;;;6.89;67.36;102466.97;10341624;28;20566;-79
2021/04/25 22:23:12;;;;;;;5.95;1.50;;;;;;;6.91;68.20;102486.31;10387140;28;20151;-79
2021/04/25 22:28:13;;;;;;;8.60;1.60;;;;;;;6.63;67.81;102443.22;10368417;28;20045;-79
2021/04/25 22:33:13;;;;;;;13.63;2.50;;;;;;;6.81;68.17;102486.47;10388287;28;21717;-79
2021/04/25 22:38:15;;;;;;;13.52;1.50;;;;;;;6.75;68.43;102478.50;10362736;28;20095;-79
2021/04/25 22:43:15;;;;;;;7.07;1.98;;;;;;;6.65;69.13;102478.63;10384612;28;20672;-79
2021/04/25 22:48:16;;;;;;;11.68;1.80;;;;;;;6.61;69.14;102488.41;10338625;28;20037;-79
2021/04/25 22:53:19;;;;;;;9.23;1.73;;;;;;;6.52;68.95;102479.38;10382420;28;20041;-79
2021/04/25 22:58:21;;;;;;;7.85;1.60;;;;;;;6.20;69.41;102445.19;10373326;28;21027;-78
2021/04/25 23:03:22;;;;;;;12.33;1.83;;;;;;;6.46;69.86;102480.53;10356715;28;20044;-81
2021/04/25 23:08:22;;;;;;;9.70;1.70;;;;;;;5.96;70.03;102413.81;10329334;28;20040;-79
2021/04/25 23:13:23;;;;;;;8.30;1.58;;;;;;;5.93;70.48;102420.53;10356784;28;20172;-79
2021/04/25 23:18:24;;;;;;;9.85;1.70;;;;;;;6.22;71.09;102465.28;10368720;28;20114;-79
2021/04/25 23:23:25;;;;;;;11.30;3.20;;;;;;;6.17;71.27;102481.47;10385639;28;20084;-79
2021/04/25 23:28:25;;;;;;;6.88;2.47;;;;;;;5.38;72.15;102361.09;10372335;28;20045;-79
2021/04/25 23:33:30;;;;;;;10.95;1.70;;;;;;;5.48;72.31;102393.19;10357244;28;20437;-79
2021/04/25 23:38:31;;;;;;;7.25;2.00;;;;;;;5.61;72.46;102407.00;10373652;28;20071;-78
2021/04/25 23:43:33;;;;;;;5.85;1.38;;;;;;;5.71;73.21;102439.06;10360261;28;20417;-78
2021/04/25 23:48:33;;;;;;;7.47;1.70;;;;;;;5.85;73.34;102456.06;10386904;28;20095;-78
2021/04/25 23:53:37;;;;;;;12.23;1.85;;;;;;;5.37;73.65;102380.97;10372166;28;20056;-78
2021/04/25 23:58:37;;;;;;;13.13;2.25;;;;;;;5.32;73.72;102378.34;10369988;28;20292;-79
